createdAt,value
2022-09-23T00:00:22.805Z,0.00
2022-09-23T00:00:52.791Z,0.00
2022-09-23T00:01:22.900Z,0.00
2022-09-23T00:01:52.967Z,0.00
2022-09-23T00:02:23.074Z,0.00
2022-09-23T00:02:53.125Z,0.00
2022-09-23T00:03:23.151Z,0.00
2022-09-23T00:03:53.145Z,0.00
2022-09-23T00:04:23.140Z,0.00
2022-09-23T00:04:53.112Z,0.00
2022-09-23T00:05:23.104Z,0.00
2022-09-23T00:05:53.102Z,0.00
2022-09-23T00:06:23.085Z,0.00
2022-09-23T00:06:53.068Z,0.00
2022-09-23T00:07:23.061Z,0.00
2022-09-23T00:07:53.064Z,0.00
2022-09-23T00:08:23.063Z,0.00
2022-09-23T00:08:53.065Z,0.00
2022-09-23T00:09:23.046Z,0.00
2022-09-23T00:09:53.049Z,0.00
2022-09-23T00:10:23.048Z,0.00
2022-09-23T00:10:53.032Z,0.00
2022-09-23T00:11:23.021Z,0.00
2022-09-23T00:11:53.001Z,0.00
2022-09-23T00:12:22.983Z,0.00
2022-09-23T00:12:52.985Z,0.00
2022-09-23T00:13:22.970Z,0.00
2022-09-23T00:13:52.963Z,0.00
2022-09-23T00:14:22.940Z,0.00
2022-09-23T00:14:52.948Z,0.00
2022-09-23T00:15:22.926Z,0.00
2022-09-23T00:15:52.911Z,0.00
2022-09-23T00:16:22.977Z,0.00
2022-09-23T00:16:53.204Z,0.00
2022-09-23T00:17:23.340Z,0.00
2022-09-23T00:17:53.324Z,0.00
2022-09-23T00:18:23.319Z,0.00
2022-09-23T00:18:53.291Z,0.00
2022-09-23T00:19:23.288Z,0.00
2022-09-23T00:19:53.280Z,0.00
2022-09-23T00:20:23.259Z,0.00
2022-09-23T00:20:53.253Z,0.00
2022-09-23T00:21:23.247Z,0.00
2022-09-23T00:21:53.235Z,0.00
2022-09-23T00:22:23.228Z,0.00
2022-09-23T00:22:53.222Z,0.00
2022-09-23T00:23:23.221Z,0.00
2022-09-23T00:23:53.203Z,0.00
2022-09-23T00:24:23.185Z,0.00
2022-09-23T00:24:53.168Z,0.00
2022-09-23T00:25:23.149Z,0.00
2022-09-23T00:25:53.144Z,0.00
2022-09-23T00:26:23.134Z,0.00
2022-09-23T00:26:53.115Z,0.00
2022-09-23T00:27:23.099Z,0.00
2022-09-23T00:27:53.083Z,0.00
2022-09-23T00:28:23.078Z,0.00
2022-09-23T00:28:53.065Z,0.00
2022-09-23T00:29:23.053Z,0.00
2022-09-23T00:29:53.073Z,0.00
2022-09-23T00:30:23.183Z,0.00
2022-09-23T00:30:53.280Z,0.00
2022-09-23T00:31:23.403Z,0.00
2022-09-23T00:31:53.429Z,0.00
2022-09-23T00:32:23.442Z,0.00
2022-09-23T00:32:53.420Z,0.00
2022-09-23T00:33:23.395Z,0.00
2022-09-23T00:33:53.383Z,0.00
2022-09-23T00:34:23.366Z,0.00
2022-09-23T00:34:53.350Z,0.00
2022-09-23T00:35:23.359Z,0.00
2022-09-23T00:35:53.341Z,0.00
2022-09-23T00:36:23.317Z,0.00
2022-09-23T00:36:53.301Z,0.00
2022-09-23T00:37:23.292Z,0.00
2022-09-23T00:37:53.274Z,0.00
2022-09-23T00:38:23.272Z,0.00
2022-09-23T00:38:53.288Z,0.00
2022-09-23T00:39:23.269Z,0.00
2022-09-23T00:39:53.254Z,0.00
2022-09-23T00:40:23.342Z,0.00
2022-09-23T00:40:53.370Z,0.00
2022-09-23T00:41:23.361Z,0.00
2022-09-23T00:41:53.341Z,0.00
2022-09-23T00:42:23.325Z,0.00
2022-09-23T00:42:53.317Z,0.00
2022-09-23T00:43:23.321Z,0.00
2022-09-23T00:43:53.326Z,0.00
2022-09-23T00:44:23.317Z,0.00
2022-09-23T00:44:53.297Z,0.00
2022-09-23T00:45:23.298Z,0.00
2022-09-23T00:45:53.459Z,0.00
2022-09-23T00:46:23.629Z,0.00
2022-09-23T00:46:53.661Z,0.00
2022-09-23T00:47:23.638Z,0.00
2022-09-23T00:47:53.618Z,0.00
2022-09-23T00:48:23.609Z,0.00
2022-09-23T00:48:53.603Z,0.00
2022-09-23T00:49:23.584Z,0.00
2022-09-23T00:49:53.565Z,0.00
2022-09-23T00:50:23.538Z,0.00
2022-09-23T00:50:53.576Z,0.00
2022-09-23T00:51:23.583Z,0.00
2022-09-23T00:51:53.560Z,0.00
2022-09-23T00:52:23.543Z,0.00
2022-09-23T00:52:53.520Z,0.00
2022-09-23T00:53:23.497Z,0.00
2022-09-23T00:53:53.500Z,0.00
2022-09-23T00:54:23.480Z,0.00
2022-09-23T00:54:53.474Z,0.00
2022-09-23T00:55:23.454Z,0.00
2022-09-23T00:55:53.424Z,0.00
2022-09-23T00:56:23.406Z,0.00
2022-09-23T00:56:53.422Z,0.00
2022-09-23T00:57:23.417Z,0.00
2022-09-23T00:57:53.395Z,0.00
2022-09-23T00:58:23.379Z,0.00
2022-09-23T00:58:53.365Z,0.00
2022-09-23T00:59:23.365Z,0.00
2022-09-23T00:59:53.353Z,0.00
2022-09-23T01:00:23.337Z,0.00
2022-09-23T01:00:53.429Z,0.00
2022-09-23T01:01:23.567Z,0.00
2022-09-23T01:01:53.614Z,0.00
2022-09-23T01:02:23.632Z,0.00
2022-09-23T01:02:53.666Z,0.00
2022-09-23T01:03:23.654Z,0.00
2022-09-23T01:03:53.628Z,0.00
2022-09-23T01:04:23.641Z,0.00
2022-09-23T01:04:53.628Z,0.00
2022-09-23T01:05:23.612Z,0.00
2022-09-23T01:05:53.593Z,0.00
2022-09-23T01:06:23.581Z,0.00
2022-09-23T01:06:53.550Z,0.00
2022-09-23T01:07:23.548Z,0.00
2022-09-23T01:07:53.552Z,0.00
2022-09-23T01:08:23.528Z,0.00
2022-09-23T01:08:53.511Z,0.00
2022-09-23T01:09:23.499Z,0.00
2022-09-23T01:09:53.514Z,0.00
2022-09-23T01:10:23.487Z,0.00
2022-09-23T01:10:53.477Z,0.00
2022-09-23T01:11:23.474Z,0.00
2022-09-23T01:11:53.450Z,0.00
2022-09-23T01:12:23.437Z,0.00
2022-09-23T01:12:53.421Z,0.00
2022-09-23T01:13:23.396Z,0.00
2022-09-23T01:13:53.406Z,0.00
2022-09-23T01:14:23.380Z,0.00
2022-09-23T01:14:53.381Z,0.00
2022-09-23T01:15:23.379Z,0.00
2022-09-23T01:15:53.374Z,0.00
2022-09-23T01:16:23.480Z,0.00
2022-09-23T01:16:53.568Z,0.00
2022-09-23T01:17:23.629Z,0.00
2022-09-23T01:17:53.611Z,0.00
2022-09-23T01:18:23.593Z,0.00
2022-09-23T01:18:53.570Z,0.00
2022-09-23T01:19:23.553Z,0.00
2022-09-23T01:19:53.531Z,0.00
2022-09-23T01:20:23.516Z,0.00
2022-09-23T01:20:53.494Z,0.00
2022-09-23T01:21:23.483Z,0.00
2022-09-23T01:21:53.460Z,0.00
2022-09-23T01:22:23.450Z,0.00
2022-09-23T01:22:53.423Z,0.00
2022-09-23T01:23:23.411Z,0.00
2022-09-23T01:23:53.383Z,0.00
2022-09-23T01:24:23.367Z,0.00
2022-09-23T01:24:53.361Z,0.00
2022-09-23T01:25:23.340Z,0.00
2022-09-23T01:25:53.441Z,0.00
2022-09-23T01:26:23.414Z,0.00
2022-09-23T01:26:53.383Z,0.00
2022-09-23T01:27:23.372Z,0.00
2022-09-23T01:27:53.354Z,0.00
2022-09-23T01:28:23.346Z,0.00
2022-09-23T01:28:53.344Z,0.00
2022-09-23T01:29:23.340Z,0.00
2022-09-23T01:29:53.323Z,0.00
2022-09-23T01:30:23.313Z,0.00
2022-09-23T01:30:53.392Z,0.00
2022-09-23T01:31:23.492Z,0.00
2022-09-23T01:31:53.515Z,0.00
2022-09-23T01:32:23.512Z,0.00
2022-09-23T01:32:53.494Z,0.00
2022-09-23T01:33:23.486Z,0.00
2022-09-23T01:33:53.474Z,0.00
2022-09-23T01:34:23.482Z,0.00
2022-09-23T01:34:53.455Z,0.00
2022-09-23T01:35:23.437Z,0.00
2022-09-23T01:35:53.415Z,0.00
2022-09-23T01:36:23.411Z,0.00
2022-09-23T01:36:53.391Z,0.00
2022-09-23T01:37:23.389Z,0.00
2022-09-23T01:37:53.378Z,0.00
2022-09-23T01:38:23.357Z,0.00
2022-09-23T01:38:53.357Z,0.00
2022-09-23T01:39:23.364Z,0.00
2022-09-23T01:39:53.345Z,0.00
2022-09-23T01:40:23.396Z,0.00
2022-09-23T01:40:53.397Z,0.00
2022-09-23T01:41:23.381Z,0.00
2022-09-23T01:41:53.363Z,0.00
2022-09-23T01:42:23.340Z,0.00
2022-09-23T01:42:53.350Z,0.00
2022-09-23T01:43:23.333Z,0.00
2022-09-23T01:43:53.321Z,0.00
2022-09-23T01:44:23.316Z,0.00
2022-09-23T01:44:53.300Z,0.00
2022-09-23T01:45:23.294Z,0.00
2022-09-23T01:45:53.272Z,0.00
2022-09-23T01:46:23.255Z,0.00
2022-09-23T01:46:53.236Z,0.00
2022-09-23T01:47:23.210Z,0.00
2022-09-23T01:47:53.306Z,0.00
2022-09-23T01:48:23.389Z,0.00
2022-09-23T01:48:53.393Z,0.00
2022-09-23T01:49:23.391Z,0.00
2022-09-23T01:49:53.380Z,0.00
2022-09-23T01:50:23.404Z,0.00
2022-09-23T01:50:53.396Z,0.00
2022-09-23T01:51:23.382Z,0.00
2022-09-23T01:51:53.415Z,0.00
2022-09-23T01:52:23.419Z,0.00
2022-09-23T01:52:53.465Z,0.00
2022-09-23T01:53:23.467Z,0.00
2022-09-23T01:53:53.464Z,0.00
2022-09-23T01:54:23.479Z,0.00
2022-09-23T01:54:53.475Z,0.00
2022-09-23T01:55:23.460Z,0.00
2022-09-23T01:55:53.467Z,0.00
2022-09-23T01:56:23.454Z,0.00
2022-09-23T01:56:53.457Z,0.00
2022-09-23T01:57:23.442Z,0.00
2022-09-23T01:57:53.475Z,0.00
2022-09-23T01:58:23.482Z,0.00
2022-09-23T01:58:53.461Z,0.00
2022-09-23T01:59:23.479Z,0.00
2022-09-23T01:59:53.482Z,0.00
2022-09-23T02:00:23.504Z,0.00
2022-09-23T02:00:53.602Z,0.00
2022-09-23T02:01:23.710Z,0.00
2022-09-23T02:01:53.747Z,0.00
2022-09-23T02:02:23.850Z,0.00
2022-09-23T02:02:53.900Z,0.00
2022-09-23T02:03:23.942Z,0.00
2022-09-23T02:03:53.940Z,0.00
2022-09-23T02:04:23.940Z,0.00
2022-09-23T02:04:53.924Z,0.00
2022-09-23T02:05:23.906Z,0.00
2022-09-23T02:05:53.888Z,0.00
2022-09-23T02:06:23.868Z,0.00
2022-09-23T02:06:53.851Z,0.00
2022-09-23T02:07:23.847Z,0.00
2022-09-23T02:07:53.823Z,0.00
2022-09-23T02:08:23.798Z,0.00
2022-09-23T02:08:53.789Z,0.00
2022-09-23T02:09:23.773Z,0.00
2022-09-23T02:09:53.751Z,0.00
2022-09-23T02:10:23.764Z,0.00
2022-09-23T02:10:53.761Z,0.00
2022-09-23T02:11:23.754Z,0.00
2022-09-23T02:11:53.739Z,0.00
2022-09-23T02:12:23.719Z,0.00
2022-09-23T02:12:53.704Z,0.00
2022-09-23T02:13:23.684Z,0.00
2022-09-23T02:13:53.664Z,0.00
2022-09-23T02:14:23.638Z,0.00
2022-09-23T02:14:53.619Z,0.00
2022-09-23T02:15:23.600Z,0.00
2022-09-23T02:15:53.591Z,0.00
2022-09-23T02:16:23.633Z,0.00
2022-09-23T02:16:53.666Z,0.00
2022-09-23T02:17:23.658Z,0.00
2022-09-23T02:17:53.638Z,0.00
2022-09-23T02:18:23.621Z,0.00
2022-09-23T02:18:53.627Z,0.00
2022-09-23T02:19:23.623Z,0.00
2022-09-23T02:19:53.597Z,0.00
2022-09-23T02:20:23.598Z,0.00
2022-09-23T02:20:53.599Z,0.00
2022-09-23T02:21:23.583Z,0.00
2022-09-23T02:21:53.573Z,0.00
2022-09-23T02:22:23.557Z,0.00
2022-09-23T02:22:53.535Z,0.00
2022-09-23T02:23:23.527Z,0.00
2022-09-23T02:23:53.503Z,0.00
2022-09-23T02:24:23.477Z,0.00
2022-09-23T02:24:53.470Z,0.00
2022-09-23T02:25:23.451Z,0.00
2022-09-23T02:25:53.445Z,0.00
2022-09-23T02:26:23.450Z,0.00
2022-09-23T02:26:53.429Z,0.00
2022-09-23T02:27:23.455Z,0.00
2022-09-23T02:27:53.431Z,0.00
2022-09-23T02:28:23.437Z,0.00
2022-09-23T02:28:53.453Z,0.00
2022-09-23T02:29:23.450Z,0.00
2022-09-23T02:29:53.435Z,0.00
2022-09-23T02:30:23.413Z,0.00
2022-09-23T02:30:53.403Z,0.00
2022-09-23T02:31:23.445Z,0.00
2022-09-23T02:31:53.518Z,0.00
2022-09-23T02:32:23.508Z,0.00
2022-09-23T02:32:53.500Z,0.00
2022-09-23T02:33:23.518Z,0.00
2022-09-23T02:33:53.611Z,0.00
2022-09-23T02:34:23.635Z,0.00
2022-09-23T02:34:53.621Z,0.00
2022-09-23T02:35:23.610Z,0.00
2022-09-23T02:35:53.594Z,0.00
2022-09-23T02:36:23.592Z,0.00
2022-09-23T02:36:53.575Z,0.00
2022-09-23T02:37:23.558Z,0.00
2022-09-23T02:37:53.540Z,0.00
2022-09-23T02:38:23.523Z,0.00
2022-09-23T02:38:53.505Z,0.00
2022-09-23T02:39:23.486Z,0.00
2022-09-23T02:39:53.467Z,0.00
2022-09-23T02:40:23.748Z,0.00
2022-09-23T02:40:53.929Z,0.00
2022-09-23T02:41:23.978Z,0.00
2022-09-23T02:41:53.956Z,0.00
2022-09-23T02:42:23.940Z,0.00
2022-09-23T02:42:53.944Z,0.00
2022-09-23T02:43:23.939Z,0.00
2022-09-23T02:43:53.927Z,0.00
2022-09-23T02:44:23.906Z,0.00
2022-09-23T02:44:53.884Z,0.00
2022-09-23T02:45:23.856Z,0.00
2022-09-23T02:45:53.909Z,0.00
2022-09-23T02:46:23.987Z,0.00
2022-09-23T02:46:54.022Z,0.00
2022-09-23T02:47:24.016Z,0.00
2022-09-23T02:47:53.993Z,0.00
2022-09-23T02:48:23.975Z,0.00
2022-09-23T02:48:53.955Z,0.00
2022-09-23T02:49:23.937Z,0.00
2022-09-23T02:49:53.944Z,0.00
2022-09-23T02:50:23.925Z,0.00
2022-09-23T02:50:53.904Z,0.00
2022-09-23T02:51:23.908Z,0.00
2022-09-23T02:51:53.903Z,0.00
2022-09-23T02:52:23.885Z,0.00
2022-09-23T02:52:53.865Z,0.00
2022-09-23T02:53:23.854Z,0.00
2022-09-23T02:53:53.854Z,0.00
2022-09-23T02:54:23.832Z,0.00
2022-09-23T02:54:53.818Z,0.00
2022-09-23T02:55:23.801Z,0.00
2022-09-23T02:55:53.781Z,0.00
2022-09-23T02:56:23.775Z,0.00
2022-09-23T02:56:53.763Z,0.00
2022-09-23T02:57:23.761Z,0.00
2022-09-23T02:57:53.761Z,0.00
2022-09-23T02:58:23.741Z,0.00
2022-09-23T02:58:53.717Z,0.00
2022-09-23T02:59:23.705Z,0.00
2022-09-23T02:59:53.690Z,0.00
2022-09-23T03:00:23.678Z,0.00
2022-09-23T03:00:53.711Z,0.00
2022-09-23T03:01:23.829Z,0.00
2022-09-23T03:01:53.890Z,0.00
2022-09-23T03:02:23.995Z,0.00
2022-09-23T03:02:54.045Z,0.00
2022-09-23T03:03:24.025Z,0.00
2022-09-23T03:03:54.022Z,0.00
2022-09-23T03:04:24.000Z,0.00
2022-09-23T03:04:53.992Z,0.00
2022-09-23T03:05:24.013Z,0.00
2022-09-23T03:05:54.028Z,0.00
2022-09-23T03:06:24.049Z,0.00
2022-09-23T03:06:54.039Z,0.00
2022-09-23T03:07:24.034Z,0.00
2022-09-23T03:07:54.020Z,0.00
2022-09-23T03:08:23.998Z,0.00
2022-09-23T03:08:53.979Z,0.00
2022-09-23T03:09:23.960Z,0.00
2022-09-23T03:09:53.957Z,0.00
2022-09-23T03:10:23.979Z,0.00
2022-09-23T03:10:53.956Z,0.00
2022-09-23T03:11:23.929Z,0.00
2022-09-23T03:11:53.922Z,0.00
2022-09-23T03:12:23.910Z,0.00
2022-09-23T03:12:53.897Z,0.00
2022-09-23T03:13:28.659Z,0.00
2022-09-23T03:13:58.807Z,0.00
2022-09-23T03:14:28.800Z,0.00
2022-09-23T03:14:58.780Z,0.00
2022-09-23T03:15:28.756Z,0.00
2022-09-23T03:15:58.740Z,0.00
2022-09-23T03:16:28.782Z,0.00
2022-09-23T03:16:58.781Z,0.00
2022-09-23T03:17:28.768Z,0.00
2022-09-23T03:17:58.756Z,0.00
2022-09-23T03:18:28.738Z,0.00
2022-09-23T03:18:58.744Z,0.00
2022-09-23T03:19:28.721Z,0.00
2022-09-23T03:19:58.704Z,0.00
2022-09-23T03:20:28.729Z,0.00
2022-09-23T03:20:58.704Z,0.00
2022-09-23T03:21:28.678Z,0.00
2022-09-23T03:21:58.668Z,0.00
2022-09-23T03:22:28.648Z,0.00
2022-09-23T03:22:58.629Z,0.00
2022-09-23T03:23:28.610Z,0.00
2022-09-23T03:23:58.598Z,0.00
2022-09-23T03:24:28.589Z,0.00
2022-09-23T03:24:58.575Z,0.00
2022-09-23T03:25:28.581Z,0.00
2022-09-23T03:25:58.562Z,0.00
2022-09-23T03:26:28.572Z,0.00
2022-09-23T03:26:58.555Z,0.00
2022-09-23T03:27:28.548Z,0.00
2022-09-23T03:27:58.540Z,0.00
2022-09-23T03:28:28.531Z,0.00
2022-09-23T03:28:58.514Z,0.00
2022-09-23T03:29:28.495Z,0.00
2022-09-23T03:29:58.477Z,0.00
2022-09-23T03:30:28.457Z,0.00
2022-09-23T03:30:58.434Z,0.00
2022-09-23T03:31:28.508Z,0.00
2022-09-23T03:31:58.631Z,0.00
2022-09-23T03:32:28.671Z,0.00
2022-09-23T03:32:58.674Z,0.00
2022-09-23T03:33:29.114Z,0.00
2022-09-23T03:33:59.151Z,0.00
2022-09-23T03:34:29.130Z,0.00
2022-09-23T03:34:59.131Z,0.00
2022-09-23T03:35:29.122Z,0.00
2022-09-23T03:35:59.177Z,0.00
2022-09-23T03:36:29.156Z,0.00
2022-09-23T03:36:59.153Z,0.00
2022-09-23T03:37:29.151Z,0.00
2022-09-23T03:37:59.163Z,0.00
2022-09-23T03:38:29.153Z,0.00
2022-09-23T03:38:59.229Z,0.00
2022-09-23T03:39:29.264Z,0.00
2022-09-23T03:39:59.259Z,0.00
2022-09-23T03:40:29.282Z,0.00
2022-09-23T03:40:59.279Z,0.00
2022-09-23T03:41:29.281Z,0.00
2022-09-23T03:41:59.268Z,0.00
2022-09-23T03:42:29.252Z,0.00
2022-09-23T03:42:59.239Z,0.00
2022-09-23T03:43:30.061Z,0.00
2022-09-23T03:44:00.084Z,0.00
2022-09-23T03:44:30.096Z,0.00
2022-09-23T03:45:00.088Z,0.00
2022-09-23T03:45:30.182Z,0.00
2022-09-23T03:46:00.324Z,0.00
2022-09-23T03:46:30.358Z,0.00
2022-09-23T03:47:00.356Z,0.00
2022-09-23T03:47:30.371Z,0.00
2022-09-23T03:48:00.352Z,0.00
2022-09-23T03:48:30.350Z,0.00
2022-09-23T03:49:00.366Z,0.00
2022-09-23T03:49:30.348Z,0.00
2022-09-23T03:50:00.341Z,0.00
2022-09-23T03:50:30.321Z,0.00
2022-09-23T03:51:00.307Z,0.00
2022-09-23T03:51:30.312Z,0.00
2022-09-23T03:52:00.289Z,0.00
2022-09-23T03:52:30.287Z,0.00
2022-09-23T03:53:00.274Z,0.00
2022-09-23T03:53:30.265Z,0.00
2022-09-23T03:54:00.260Z,0.00
2022-09-23T03:54:30.252Z,0.00
2022-09-23T03:55:00.245Z,0.00
2022-09-23T03:55:30.228Z,0.00
2022-09-23T03:56:00.203Z,0.00
2022-09-23T03:56:30.198Z,0.00
2022-09-23T03:57:00.177Z,0.00
2022-09-23T03:57:30.156Z,0.00
2022-09-23T03:58:00.132Z,0.00
2022-09-23T03:58:30.112Z,0.00
2022-09-23T03:59:00.105Z,0.00
2022-09-23T03:59:30.092Z,0.00
2022-09-23T04:00:00.070Z,0.00
2022-09-23T04:00:30.085Z,0.00
2022-09-23T04:01:00.190Z,0.00
2022-09-23T04:01:30.301Z,0.00
2022-09-23T04:02:00.381Z,0.00
2022-09-23T04:02:30.493Z,0.00
2022-09-23T04:03:00.487Z,0.00
2022-09-23T04:03:30.462Z,0.00
2022-09-23T04:04:00.469Z,0.00
2022-09-23T04:04:30.489Z,0.00
2022-09-23T04:05:00.481Z,0.00
2022-09-23T04:05:30.526Z,0.00
2022-09-23T04:06:00.499Z,0.00
2022-09-23T04:06:30.488Z,0.00
2022-09-23T04:07:00.492Z,0.00
2022-09-23T04:07:30.469Z,0.00
2022-09-23T04:08:00.452Z,0.00
2022-09-23T04:08:30.432Z,0.00
2022-09-23T04:09:00.414Z,0.00
2022-09-23T04:09:30.408Z,0.00
2022-09-23T04:10:00.388Z,0.00
2022-09-23T04:10:30.380Z,0.00
2022-09-23T04:11:00.376Z,0.00
2022-09-23T04:11:30.356Z,0.00
2022-09-23T04:12:00.338Z,0.00
2022-09-23T04:12:30.330Z,0.00
2022-09-23T04:13:00.307Z,0.00
2022-09-23T04:13:30.288Z,0.00
2022-09-23T04:14:00.267Z,0.00
2022-09-23T04:14:30.239Z,0.00
2022-09-23T04:15:00.233Z,0.00
2022-09-23T04:15:30.221Z,0.00
2022-09-23T04:16:00.268Z,0.00
2022-09-23T04:16:30.354Z,0.00
2022-09-23T04:17:00.398Z,0.00
2022-09-23T04:17:30.381Z,0.00
2022-09-23T04:18:00.379Z,0.00
2022-09-23T04:18:30.368Z,0.00
2022-09-23T04:19:00.349Z,0.00
2022-09-23T04:19:30.331Z,0.00
2022-09-23T04:20:00.331Z,0.00
2022-09-23T04:20:30.297Z,0.00
2022-09-23T04:21:00.307Z,0.00
2022-09-23T04:21:30.325Z,0.00
2022-09-23T04:22:00.308Z,0.00
2022-09-23T04:22:30.321Z,0.00
2022-09-23T04:23:00.303Z,0.00
2022-09-23T04:23:30.288Z,0.00
2022-09-23T04:24:00.279Z,0.00
2022-09-23T04:24:30.283Z,0.00
2022-09-23T04:25:00.272Z,0.00
2022-09-23T04:25:30.266Z,0.00
2022-09-23T04:26:00.254Z,0.00
2022-09-23T04:26:30.242Z,0.00
2022-09-23T04:27:00.236Z,0.00
2022-09-23T04:27:34.206Z,0.00
2022-09-23T04:28:05.163Z,0.00
2022-09-23T04:28:35.143Z,0.00
2022-09-23T04:29:05.264Z,0.00
2022-09-23T04:29:35.403Z,0.00
2022-09-23T04:30:05.392Z,0.00
2022-09-23T04:30:35.385Z,0.00
2022-09-23T04:31:05.490Z,0.00
2022-09-23T04:31:35.617Z,0.00
2022-09-23T04:32:05.693Z,0.00
2022-09-23T04:32:35.681Z,0.00
2022-09-23T04:33:05.667Z,0.00
2022-09-23T04:33:35.694Z,0.00
2022-09-23T04:34:05.673Z,0.00
2022-09-23T04:34:35.659Z,3.00
2022-09-23T04:35:05.642Z,3.00
2022-09-23T04:35:39.929Z,3.00
2022-09-23T04:36:10.230Z,3.00
2022-09-23T04:36:40.214Z,3.00
2022-09-23T04:37:10.200Z,3.00
2022-09-23T04:37:40.247Z,3.00
2022-09-23T04:38:10.237Z,0.00
2022-09-23T04:38:40.227Z,0.00
2022-09-23T04:39:10.269Z,0.00
2022-09-23T04:39:40.297Z,0.00
2022-09-23T04:40:10.355Z,4.00
2022-09-23T04:40:40.533Z,4.00
2022-09-23T04:41:10.584Z,4.00
2022-09-23T04:41:40.572Z,4.00
2022-09-23T04:42:10.592Z,4.00
2022-09-23T04:42:40.571Z,1.00
2022-09-23T04:43:13.463Z,1.00
2022-09-23T04:43:43.665Z,1.00
2022-09-23T04:44:13.669Z,9.00
2022-09-23T04:44:43.653Z,1.00
2022-09-23T04:45:13.647Z,5.00
2022-09-23T04:45:43.645Z,10.00
2022-09-23T04:46:13.663Z,3.00
2022-09-23T04:46:43.794Z,3.00
2022-09-23T04:47:13.842Z,10.00
2022-09-23T04:47:43.824Z,27.00
2022-09-23T04:48:13.805Z,15.00
2022-09-23T04:48:43.797Z,7.00
2022-09-23T04:49:13.778Z,7.00
2022-09-23T04:49:43.760Z,9.00
2022-09-23T04:50:13.745Z,11.00
2022-09-23T04:50:43.726Z,13.00
2022-09-23T04:51:13.726Z,14.00
2022-09-23T04:51:43.871Z,14.00
2022-09-23T04:52:13.869Z,16.00
2022-09-23T04:52:43.868Z,15.00
2022-09-23T04:53:13.855Z,25.00
2022-09-23T04:53:43.837Z,19.00
2022-09-23T04:54:13.823Z,20.00
2022-09-23T04:54:43.808Z,21.00
2022-09-23T04:55:13.796Z,22.00
2022-09-23T04:55:43.777Z,24.00
2022-09-23T04:56:13.758Z,24.00
2022-09-23T04:56:43.748Z,31.00
2022-09-23T04:57:13.740Z,44.00
2022-09-23T04:57:43.719Z,28.00
2022-09-23T04:58:13.701Z,37.00
2022-09-23T04:58:43.687Z,52.00
2022-09-23T04:59:13.679Z,58.00
2022-09-23T04:59:43.667Z,47.00
2022-09-23T05:00:13.671Z,54.00
2022-09-23T05:00:43.740Z,54.00
2022-09-23T05:01:13.818Z,56.00
2022-09-23T05:01:43.946Z,57.00
2022-09-23T05:02:14.061Z,92.00
2022-09-23T05:02:44.079Z,92.00
2022-09-23T05:03:14.060Z,92.00
2022-09-23T05:03:44.042Z,100.00
2022-09-23T05:04:14.246Z,96.00
2022-09-23T05:04:44.332Z,109.00
2022-09-23T05:05:14.330Z,114.00
2022-09-23T05:05:44.339Z,132.00
2022-09-23T05:06:14.313Z,132.00
2022-09-23T05:06:44.298Z,132.00
2022-09-23T05:07:14.301Z,148.00
2022-09-23T05:07:44.284Z,130.00
2022-09-23T05:08:14.305Z,159.00
2022-09-23T05:08:44.294Z,161.00
2022-09-23T05:09:14.303Z,163.00
2022-09-23T05:09:44.281Z,183.00
2022-09-23T05:10:14.255Z,182.00
2022-09-23T05:10:44.238Z,161.00
2022-09-23T05:11:14.218Z,153.00
2022-09-23T05:11:44.207Z,182.00
2022-09-23T05:12:14.183Z,208.00
2022-09-23T05:12:44.187Z,226.00
2022-09-23T05:13:14.169Z,230.00
2022-09-23T05:13:44.151Z,235.00
2022-09-23T05:14:14.148Z,236.00
2022-09-23T05:14:44.146Z,240.00
2022-09-23T05:15:14.136Z,250.00
2022-09-23T05:15:44.121Z,247.00
2022-09-23T05:16:14.174Z,256.00
2022-09-23T05:16:44.275Z,252.00
2022-09-23T05:17:14.291Z,278.00
2022-09-23T05:17:44.280Z,274.00
2022-09-23T05:18:16.906Z,282.00
2022-09-23T05:18:49.198Z,303.00
2022-09-23T05:19:19.182Z,299.00
2022-09-23T05:19:49.173Z,308.00
2022-09-23T05:20:19.148Z,321.00
2022-09-23T05:20:49.132Z,339.00
2022-09-23T05:21:19.113Z,319.00
2022-09-23T05:21:49.088Z,340.00
2022-09-23T05:22:19.073Z,375.00
2022-09-23T05:22:49.064Z,389.00
2022-09-23T05:23:19.070Z,395.00
2022-09-23T05:23:49.053Z,434.00
2022-09-23T05:24:19.048Z,427.00
2022-09-23T05:24:49.041Z,458.00
2022-09-23T05:25:19.023Z,472.00
2022-09-23T05:25:49.008Z,482.00
2022-09-23T05:26:18.990Z,517.00
2022-09-23T05:26:48.971Z,541.00
2022-09-23T05:27:18.967Z,547.00
2022-09-23T05:27:48.955Z,562.00
2022-09-23T05:28:18.942Z,587.00
2022-09-23T05:28:49.012Z,625.00
2022-09-23T05:29:19.022Z,659.00
2022-09-23T05:29:49.005Z,697.00
2022-09-23T05:30:19.019Z,728.00
2022-09-23T05:30:49.011Z,738.00
2022-09-23T05:31:20.715Z,744.00
2022-09-23T05:31:50.999Z,783.00
2022-09-23T05:32:20.994Z,789.00
2022-09-23T05:32:50.985Z,830.00
2022-09-23T05:33:20.986Z,838.00
2022-09-23T05:33:50.973Z,885.00
2022-09-23T05:34:20.975Z,939.00
2022-09-23T05:34:50.964Z,959.00
2022-09-23T05:35:20.941Z,1000.00
2022-09-23T05:35:50.932Z,1024.00
2022-09-23T05:36:20.947Z,1058.00
2022-09-23T05:36:50.953Z,1125.00
2022-09-23T05:37:20.935Z,1196.00
2022-09-23T05:37:50.915Z,1208.00
2022-09-23T05:38:20.894Z,1247.00
2022-09-23T05:38:50.963Z,1274.00
2022-09-23T05:39:20.961Z,1296.00
2022-09-23T05:39:50.968Z,1318.00
2022-09-23T05:40:21.018Z,1349.00
2022-09-23T05:40:51.149Z,1393.00
2022-09-23T05:41:21.199Z,1417.00
2022-09-23T05:41:51.173Z,1463.00
2022-09-23T05:42:21.158Z,1514.00
2022-09-23T05:42:51.136Z,1581.00
2022-09-23T05:43:21.115Z,1636.00
2022-09-23T05:43:51.090Z,1678.00
2022-09-23T05:44:21.088Z,1745.00
2022-09-23T05:44:51.067Z,1765.00
2022-09-23T05:45:21.056Z,1825.00
2022-09-23T05:45:51.055Z,1879.00
2022-09-23T05:46:21.118Z,1899.00
2022-09-23T05:46:51.245Z,1931.00
2022-09-23T05:47:21.277Z,1994.00
2022-09-23T05:47:51.262Z,2061.00
2022-09-23T05:48:21.239Z,2076.00
2022-09-23T05:48:51.227Z,2117.00
2022-09-23T05:49:33.040Z,2170.00
2022-09-23T05:50:00.071Z,2198.00
2022-09-23T05:50:30.571Z,2200.00
2022-09-23T05:51:00.556Z,2217.00
2022-09-23T05:51:31.356Z,2217.00
2022-09-23T05:52:01.574Z,2225.00
2022-09-23T05:52:31.566Z,2242.00
2022-09-23T05:53:01.558Z,2234.00
2022-09-23T05:53:31.557Z,2234.00
2022-09-23T05:54:01.565Z,2251.00
2022-09-23T05:54:31.552Z,2225.00
2022-09-23T05:55:01.578Z,2249.00
2022-09-23T05:55:31.581Z,2235.00
2022-09-23T05:56:01.717Z,2234.00
2022-09-23T05:56:31.725Z,2224.00
2022-09-23T05:57:04.366Z,2210.00
2022-09-23T05:57:35.148Z,2192.00
2022-09-23T05:58:05.148Z,2183.00
2022-09-23T05:58:35.125Z,2182.00
2022-09-23T05:59:05.110Z,2208.00
2022-09-23T05:59:35.144Z,2191.00
2022-09-23T06:00:05.169Z,2226.00
2022-09-23T06:00:35.162Z,2261.00
2022-09-23T06:01:05.157Z,2265.00
2022-09-23T06:01:35.389Z,2287.00
2022-09-23T06:02:05.598Z,2310.00
2022-09-23T06:02:35.687Z,2306.00
2022-09-23T06:03:05.740Z,2337.00
2022-09-23T06:03:35.791Z,2342.00
2022-09-23T06:04:05.953Z,2355.00
2022-09-23T06:04:36.089Z,2358.00
2022-09-23T06:05:06.058Z,2335.00
2022-09-23T06:05:36.057Z,2338.00
2022-09-23T06:06:06.040Z,2303.00
2022-09-23T06:06:36.036Z,2276.00
2022-09-23T06:07:06.016Z,2275.00
2022-09-23T06:07:36.034Z,2274.00
2022-09-23T06:08:06.043Z,2274.00
2022-09-23T06:08:36.047Z,2248.00
2022-09-23T06:09:06.181Z,2234.00
2022-09-23T06:09:36.900Z,2245.00
2022-09-23T06:10:06.986Z,2218.00
2022-09-23T06:10:36.969Z,2192.00
2022-09-23T06:11:06.945Z,2192.00
2022-09-23T06:11:36.957Z,2209.00
2022-09-23T06:12:06.995Z,2236.00
2022-09-23T06:12:36.975Z,2269.00
2022-09-23T06:13:06.945Z,2320.00
2022-09-23T06:13:36.931Z,2380.00
2022-09-23T06:14:07.367Z,2421.00
2022-09-23T06:14:37.456Z,2452.00
2022-09-23T06:15:07.452Z,2501.00
2022-09-23T06:15:37.471Z,2521.00
2022-09-23T06:16:07.598Z,2580.00
2022-09-23T06:16:37.614Z,2625.00
2022-09-23T06:17:07.599Z,2685.00
2022-09-23T06:17:37.586Z,2726.00
2022-09-23T06:18:07.563Z,2790.00
2022-09-23T06:18:37.564Z,2827.00
2022-09-23T06:19:07.579Z,2873.00
2022-09-23T06:19:37.587Z,2915.00
2022-09-23T06:20:07.602Z,2943.00
2022-09-23T06:20:37.595Z,2979.00
2022-09-23T06:21:07.583Z,2949.00
2022-09-23T06:21:38.009Z,3583.00
2022-09-23T06:22:08.214Z,3331.00
2022-09-23T06:22:39.951Z,3114.00
2022-09-23T06:23:10.629Z,3145.00
2022-09-23T06:23:41.930Z,3173.00
2022-09-23T06:24:16.786Z,3109.00
2022-09-23T06:24:47.078Z,4415.00
2022-09-23T06:25:17.080Z,3365.00
2022-09-23T06:25:47.104Z,3327.00
2022-09-23T06:26:17.124Z,3345.00
2022-09-23T06:26:47.113Z,3400.00
2022-09-23T06:27:17.130Z,3471.00
2022-09-23T06:27:47.106Z,3505.00
2022-09-23T06:28:17.151Z,3590.00
2022-09-23T06:28:47.154Z,3641.00
2022-09-23T06:29:17.148Z,3834.00
2022-09-23T06:29:47.195Z,3868.00
2022-09-23T06:30:17.228Z,3865.00
2022-09-23T06:30:47.205Z,3858.00
2022-09-23T06:31:17.293Z,3907.00
2022-09-23T06:31:47.533Z,3970.00